Buoy 46612

sailwx.info

Track history (hours):
 
Tides and Currents Weather Stations Pressure Air Temp Water Temp Dewpoint Dewpoint Depression Visibility Wind Speed Wind Dir Waves Ship Positions

Drifting buoy 46612

Last reported at 2017-Jan-15 12:00 UTC. Time now 2017-May-26 03:28 UTC.
Position N 26°44' W 133°00'.
Warning: this ship's position is months out of date.

Water temperature 20.2 ° C

Date/timePositionNaut miles runAvg speedWind from/ knotsBaromVisibWave heightAir tempDewpointWater temp
2017-Jan-15 12:00N 26°44' W 133°00'   20.2
2017-Jan-13 06:00N 26°13' W 133°28'0 0.0 20.4
2017-Jan-12 14:00N 26°13' W 133°28'0 0.0 20.5
2017-Jan-12 12:00N 26°13' W 133°28'0 0.0 20.5
2017-Jan-11 20:00N 26°13' W 133°28'0 0.0 20.8
2017-Jan-11 13:00N 26°13' W 133°28'2 1.6 20.6
2017-Jan-11 12:00N 26°12' W 133°29'2 0.2 20.6
2017-Jan-11 01:00N 26°10' W 133°30'0 0.0 22.2
2017-Jan-11 00:00N 26°10' W 133°30'1 0.4 22.4
2017-Jan-10 21:00N 26°11' W 133°31'0 0.0 21.6
2017-Jan-10 19:00N 26°11' W 133°31'5 0.4 20.9
2017-Jan-10 07:00N 26°06' W 133°33'0 0.0 20.7
2017-Jan-10 05:00N 26°06' W 133°33'1 0.2 20.8
2017-Jan-10 00:00N 26°07' W 133°34'0 0.0 21.0
2017-Jan-09 23:00N 26°07' W 133°34'1 0.3 21.0
2017-Jan-09 21:00N 26°07' W 133°34'1 0.3 20.8
2017-Jan-09 18:00N 26°06' W 133°34'0 0.0 20.6
2017-Jan-09 17:00N 26°06' W 133°34'0 0.0 20.5
2017-Jan-09 16:00N 26°06' W 133°34'1 0.4 20.5
2017-Jan-09 14:00N 26°05' W 133°34'0 0.0 20.6
2017-Jan-09 12:00N 26°05' W 133°34'0 0.0 20.6
2017-Jan-09 11:00N 26°05' W 133°34'2 0.3 20.6
2017-Jan-09 05:00N 26°04' W 133°36'0 0.0 20.6
2017-Jan-09 02:00N 26°04' W 133°36'1 0.5 20.6
2017-Jan-09 01:00N 26°04' W 133°37'1 0.8 20.7
2017-Jan-09 00:00N 26°04' W 133°36'1 0.8 20.7
2017-Jan-08 23:00N 26°03' W 133°35'0 0.0 20.7
2017-Jan-08 22:00N 26°03' W 133°35'0 0.0 20.6
2017-Jan-08 21:00N 26°03' W 133°35'1 0.3 20.7
2017-Jan-08 18:00N 26°02' W 133°36'1 0.3 20.6
2017-Jan-08 16:00N 26°02' W 133°36'1 0.4 20.6
2017-Jan-08 14:00N 26°02' W 133°37'1 0.2 20.6
2017-Jan-08 06:00N 26°04' W 133°37'0 0.0 20.6
2017-Jan-08 05:00N 26°04' W 133°37'1 0.1 20.6
2017-Jan-07 23:00N 26°03' W 133°38'1 0.6 20.6
2017-Jan-07 21:00N 26°02' W 133°38'0 0.0 20.6
2017-Jan-07 16:00N 26°02' W 133°38'0 0.0 20.6
2017-Jan-07 15:00N 26°02' W 133°38'1 0.2 20.6
2017-Jan-07 12:00N 26°01' W 133°38'2 1.6 20.6
2017-Jan-07 11:00N 26°01' W 133°36'0 0.0 20.6
2017-Jan-07 00:00N 26°01' W 133°36'1 1.3 20.7
2017-Jan-06 23:00N 26°00' W 133°35'0 0.0 20.7
2017-Jan-06 22:00N 26°00' W 133°35'1 0.3 20.6
2017-Jan-06 19:00N 25°59' W 133°36'0 0.0 20.6
2017-Jan-06 18:00N 25°59' W 133°36'1 1.2 20.6
2017-Jan-06 17:00N 25°59' W 133°35'1 0.8 20.6
2017-Jan-06 16:00N 25°58' W 133°34'0 0.0 20.6
2017-Jan-06 15:00N 25°58' W 133°34'1 1.2 20.6
2017-Jan-06 14:00N 25°57' W 133°34'0 0.0 20.7
2017-Jan-06 13:00N 25°57' W 133°34'1 0.6 20.6
2017-Jan-06 12:00N 25°56' W 133°34'1 0.2 20.7
2017-Jan-06 07:00N 25°56' W 133°35'0 0.0 20.8
2017-Jan-06 05:00N 25°56' W 133°35'2 0.3 20.9
2017-Jan-06 00:00N 25°55' W 133°36'0 0.0 21.4
2017-Jan-05 23:00N 25°55' W 133°36'1 1.2 21.4
2017-Jan-05 22:00N 25°54' W 133°35'1 0.2 21.4
2017-Jan-05 19:00N 25°54' W 133°35'1 0.3 20.7
2017-Jan-05 17:00N 25°54' W 133°36'0 0.0 20.5
2017-Jan-05 16:00N 25°54' W 133°36'0 0.0 20.5
2017-Jan-05 15:00N 25°54' W 133°36'1 0.6 20.5
2017-Jan-05 14:00N 25°55' W 133°36'   20.5
Track history (hours):
 
Tides and Currents Weather Stations Pressure Air Temp Water Temp Dewpoint Dewpoint Depression Visibility Wind Speed Wind Dir Waves Ship Positions

Drifting buoy 46612

Last reported at 2017-Jan-15 12:00 UTC. Time now 2017-May-26 03:28 UTC.
Position N 26°44' W 133°00'.
Warning: this ship's position is months out of date.

Water temperature 20.2 ° C

Date/timePositionNaut miles runAvg speedWind from/ knotsBaromVisibWave heightAir tempDewpointWater temp
2017-Jan-15 12:00N 26°44' W 133°00'   20.2
2017-Jan-13 06:00N 26°13' W 133°28'0 0.0 20.4
2017-Jan-12 14:00N 26°13' W 133°28'0 0.0 20.5
2017-Jan-12 12:00N 26°13' W 133°28'0 0.0 20.5
2017-Jan-11 20:00N 26°13' W 133°28'0 0.0 20.8
2017-Jan-11 13:00N 26°13' W 133°28'2 1.6 20.6
2017-Jan-11 12:00N 26°12' W 133°29'2 0.2 20.6
2017-Jan-11 01:00N 26°10' W 133°30'0 0.0 22.2
2017-Jan-11 00:00N 26°10' W 133°30'1 0.4 22.4
2017-Jan-10 21:00N 26°11' W 133°31'0 0.0 21.6
2017-Jan-10 19:00N 26°11' W 133°31'5 0.4 20.9
2017-Jan-10 07:00N 26°06' W 133°33'0 0.0 20.7
2017-Jan-10 05:00N 26°06' W 133°33'1 0.2 20.8
2017-Jan-10 00:00N 26°07' W 133°34'0 0.0 21.0
2017-Jan-09 23:00N 26°07' W 133°34'1 0.3 21.0
2017-Jan-09 21:00N 26°07' W 133°34'1 0.3 20.8
2017-Jan-09 18:00N 26°06' W 133°34'0 0.0 20.6
2017-Jan-09 17:00N 26°06' W 133°34'0 0.0 20.5
2017-Jan-09 16:00N 26°06' W 133°34'1 0.4 20.5
2017-Jan-09 14:00N 26°05' W 133°34'0 0.0 20.6
2017-Jan-09 12:00N 26°05' W 133°34'0 0.0 20.6
2017-Jan-09 11:00N 26°05' W 133°34'2 0.3 20.6
2017-Jan-09 05:00N 26°04' W 133°36'0 0.0 20.6
2017-Jan-09 02:00N 26°04' W 133°36'1 0.5 20.6
2017-Jan-09 01:00N 26°04' W 133°37'1 0.8 20.7
2017-Jan-09 00:00N 26°04' W 133°36'1 0.8 20.7
2017-Jan-08 23:00N 26°03' W 133°35'0 0.0 20.7
2017-Jan-08 22:00N 26°03' W 133°35'0 0.0 20.6
2017-Jan-08 21:00N 26°03' W 133°35'1 0.3 20.7
2017-Jan-08 18:00N 26°02' W 133°36'1 0.3 20.6
2017-Jan-08 16:00N 26°02' W 133°36'1 0.4 20.6
2017-Jan-08 14:00N 26°02' W 133°37'1 0.2 20.6
2017-Jan-08 06:00N 26°04' W 133°37'0 0.0 20.6
2017-Jan-08 05:00N 26°04' W 133°37'1 0.1 20.6
2017-Jan-07 23:00N 26°03' W 133°38'1 0.6 20.6
2017-Jan-07 21:00N 26°02' W 133°38'0 0.0 20.6
2017-Jan-07 16:00N 26°02' W 133°38'0 0.0 20.6
2017-Jan-07 15:00N 26°02' W 133°38'1 0.2 20.6
2017-Jan-07 12:00N 26°01' W 133°38'2 1.6 20.6
2017-Jan-07 11:00N 26°01' W 133°36'0 0.0 20.6
2017-Jan-07 00:00N 26°01' W 133°36'1 1.3 20.7
2017-Jan-06 23:00N 26°00' W 133°35'0 0.0 20.7
2017-Jan-06 22:00N 26°00' W 133°35'1 0.3 20.6
2017-Jan-06 19:00N 25°59' W 133°36'0 0.0 20.6
2017-Jan-06 18:00N 25°59' W 133°36'1 1.2 20.6
2017-Jan-06 17:00N 25°59' W 133°35'1 0.8 20.6
2017-Jan-06 16:00N 25°58' W 133°34'0 0.0 20.6
2017-Jan-06 15:00N 25°58' W 133°34'1 1.2 20.6
2017-Jan-06 14:00N 25°57' W 133°34'0 0.0 20.7
2017-Jan-06 13:00N 25°57' W 133°34'1 0.6 20.6
2017-Jan-06 12:00N 25°56' W 133°34'1 0.2 20.7
2017-Jan-06 07:00N 25°56' W 133°35'0 0.0 20.8
2017-Jan-06 05:00N 25°56' W 133°35'2 0.3 20.9
2017-Jan-06 00:00N 25°55' W 133°36'0 0.0 21.4
2017-Jan-05 23:00N 25°55' W 133°36'1 1.2 21.4
2017-Jan-05 22:00N 25°54' W 133°35'1 0.2 21.4
2017-Jan-05 19:00N 25°54' W 133°35'1 0.3 20.7
2017-Jan-05 17:00N 25°54' W 133°36'0 0.0 20.5
2017-Jan-05 16:00N 25°54' W 133°36'0 0.0 20.5
2017-Jan-05 15:00N 25°54' W 133°36'1 0.6 20.5
2017-Jan-05 14:00N 25°55' W 133°36'   20.5

Dump ship's entire track history